createdAt,value
2018-08-11T00:00:16.405Z,18.29
2018-08-11T00:02:43.356Z,18.24
2018-08-11T00:05:10.310Z,18.29
2018-08-11T00:07:37.261Z,18.19
2018-08-11T00:10:07.082Z,18.05
2018-08-11T00:12:36.082Z,17.75
2018-08-11T00:15:04.247Z,17.71
2018-08-11T00:17:31.276Z,17.70
2018-08-11T00:19:58.190Z,17.66
2018-08-11T00:22:25.190Z,17.60
2018-08-11T00:24:53.141Z,17.65
2018-08-11T00:27:20.106Z,17.69
2018-08-11T00:29:47.045Z,17.67
2018-08-11T00:32:13.967Z,17.74
2018-08-11T00:34:40.858Z,17.83
2018-08-11T00:37:08.862Z,17.65
2018-08-11T00:39:35.797Z,17.69
2018-08-11T00:42:02.756Z,17.66
2018-08-11T00:44:29.718Z,17.73
2018-08-11T00:46:56.665Z,17.68
2018-08-11T00:49:25.682Z,17.60
2018-08-11T00:51:53.672Z,17.53
2018-08-11T00:54:20.573Z,17.65
2018-08-11T00:56:47.466Z,17.60
2018-08-11T00:59:14.418Z,17.54
2018-08-11T01:01:41.383Z,17.45
2018-08-11T01:04:10.254Z,17.44
2018-08-11T01:06:37.133Z,17.42
2018-08-11T01:09:07.053Z,17.54
2018-08-11T01:11:34.102Z,17.47
2018-08-11T01:14:02.740Z,17.28
2018-08-11T01:16:29.670Z,17.08
2018-08-11T01:18:58.261Z,16.99
2018-08-11T01:21:25.229Z,17.06
2018-08-11T01:23:52.171Z,17.20
2018-08-11T01:26:19.173Z,17.23
2018-08-11T01:28:46.102Z,17.24
2018-08-11T01:31:13.056Z,17.54
2018-08-11T01:33:41.770Z,17.47
2018-08-11T01:36:08.683Z,17.60
2018-08-11T01:38:35.586Z,17.54
2018-08-11T01:41:02.538Z,17.47
2018-08-11T01:43:29.585Z,17.44
2018-08-11T01:45:56.506Z,17.53
2018-08-11T01:48:23.405Z,17.57
2018-08-11T01:50:50.354Z,17.55
2018-08-11T01:53:17.313Z,17.65
2018-08-11T01:55:44.790Z,17.50
2018-08-11T01:58:11.698Z,17.61
2018-08-11T02:00:38.617Z,17.57
2018-08-11T02:03:05.569Z,17.26
2018-08-11T02:05:34.261Z,17.08
2018-08-11T02:08:02.273Z,16.99
2018-08-11T02:10:29.162Z,17.39
2018-08-11T02:12:56.053Z,17.17
2018-08-11T02:15:23.006Z,16.93
2018-08-11T02:17:49.965Z,16.85
2018-08-11T02:20:18.348Z,17.06
2018-08-11T02:22:46.238Z,16.89
2018-08-11T02:25:13.241Z,16.91
2018-08-11T02:27:40.230Z,17.00
2018-08-11T02:30:11.102Z,16.82
2018-08-11T02:32:38.360Z,16.96
2018-08-11T02:35:05.928Z,16.81
2018-08-11T02:37:40.574Z,16.91
2018-08-11T02:40:09.197Z,16.93
2018-08-11T02:42:36.160Z,16.94
2018-08-11T02:45:03.554Z,16.89
2018-08-11T02:47:31.378Z,16.83
2018-08-11T02:49:58.334Z,16.50
2018-08-11T02:52:25.308Z,16.66
2018-08-11T02:54:52.823Z,16.73
2018-08-11T02:57:19.711Z,16.67
2018-08-11T02:59:46.669Z,16.76
2018-08-11T03:02:13.625Z,16.71
2018-08-11T03:04:41.315Z,16.64
2018-08-11T03:07:08.254Z,16.61
2018-08-11T03:09:35.217Z,16.61
2018-08-11T03:12:02.220Z,16.50
2018-08-11T03:14:30.159Z,16.56
2018-08-11T03:16:58.863Z,16.48
2018-08-11T03:19:25.822Z,16.53
2018-08-11T03:21:52.873Z,16.48
2018-08-11T03:24:20.334Z,16.42
2018-08-11T03:26:47.332Z,16.35
2018-08-11T03:29:14.279Z,16.45
2018-08-11T03:31:45.707Z,16.21
2018-08-11T03:34:13.327Z,16.20
2018-08-11T03:36:40.270Z,16.18
2018-08-11T03:39:08.777Z,16.22
2018-08-11T03:41:35.725Z,16.17
2018-08-11T03:44:02.672Z,16.32
2018-08-11T03:46:29.614Z,16.33
2018-08-11T03:48:57.362Z,16.13
2018-08-11T03:51:24.258Z,15.79
2018-08-11T03:53:51.222Z,15.79
2018-08-11T03:56:18.164Z,15.69
2018-08-11T03:58:46.165Z,15.90
2018-08-11T04:01:15.886Z,15.61
2018-08-11T04:03:43.333Z,15.82
2018-08-11T04:06:10.331Z,16.27
2018-08-11T04:08:37.249Z,16.15
2018-08-11T04:11:04.394Z,15.78
2018-08-11T04:13:31.884Z,15.74
2018-08-11T04:15:59.041Z,15.77
2018-08-11T04:18:26.010Z,15.74
2018-08-11T04:20:52.965Z,15.73
2018-08-11T04:23:19.942Z,15.66
2018-08-11T04:25:47.922Z,16.18
2018-08-11T04:28:14.865Z,15.94
2018-08-11T04:30:41.845Z,15.85
2018-08-11T04:33:08.789Z,15.93
2018-08-11T04:35:36.350Z,15.92
2018-08-11T04:38:03.369Z,15.84
2018-08-11T04:40:30.278Z,15.74
2018-08-11T04:42:57.250Z,15.86
2018-08-11T04:45:24.162Z,16.09
2018-08-11T04:47:55.274Z,16.03
2018-08-11T04:50:22.281Z,15.99
2018-08-11T04:52:49.251Z,15.97
2018-08-11T04:55:16.937Z,15.93
2018-08-11T04:57:43.894Z,16.02
2018-08-11T05:00:10.858Z,16.06
2018-08-11T05:02:37.805Z,15.93
2018-08-11T05:05:05.366Z,16.22
2018-08-11T05:07:32.325Z,16.00
2018-08-11T05:09:59.303Z,15.81
2018-08-11T05:12:26.251Z,16.32
2018-08-11T05:14:53.268Z,16.38
2018-08-11T05:17:20.165Z,16.45
2018-08-11T05:19:47.343Z,16.46
2018-08-11T05:22:14.278Z,16.54
2018-08-11T05:24:42.257Z,16.52
2018-08-11T05:27:09.174Z,16.49
2018-08-11T05:29:36.921Z,16.56
2018-08-11T05:32:05.779Z,16.54
2018-08-11T05:34:36.630Z,16.86
2018-08-11T05:37:08.417Z,17.24
2018-08-11T05:39:35.355Z,17.28
2018-08-11T05:42:02.311Z,17.64
2018-08-11T05:44:29.350Z,17.91
2018-08-11T05:46:56.254Z,17.61
2018-08-11T05:49:23.198Z,17.83
2018-08-11T05:51:50.179Z,17.89
2018-08-11T05:54:17.942Z,18.04
2018-08-11T05:56:45.406Z,17.72
2018-08-11T05:59:15.929Z,17.63
2018-08-11T06:01:42.886Z,17.88
2018-08-11T06:04:09.850Z,18.07
2018-08-11T06:06:37.429Z,18.21
2018-08-11T06:09:08.998Z,18.61
2018-08-11T06:11:38.729Z,18.62
2018-08-11T06:14:06.385Z,18.94
2018-08-11T06:16:35.014Z,19.01
2018-08-11T06:19:01.942Z,18.76
2018-08-11T06:21:28.905Z,18.67
2018-08-11T06:23:59.342Z,19.03
2018-08-11T06:26:26.347Z,19.78
2018-08-11T06:28:53.258Z,20.02
2018-08-11T06:31:21.376Z,20.35
2018-08-11T06:33:48.195Z,20.09
2018-08-11T06:36:15.379Z,20.21
2018-08-11T06:38:42.313Z,20.21
2018-08-11T06:41:09.274Z,19.07
2018-08-11T06:43:36.250Z,19.73
2018-08-11T06:46:03.909Z,20.00
2018-08-11T06:48:30.872Z,19.85
2018-08-11T06:50:58.446Z,19.71
2018-08-11T06:53:25.450Z,19.99
2018-08-11T06:55:52.356Z,20.65
2018-08-11T06:58:20.509Z,20.48
2018-08-11T07:00:47.407Z,19.95
2018-08-11T07:03:15.378Z,20.09
2018-08-11T07:05:42.333Z,20.33
2018-08-11T07:08:09.252Z,21.45
2018-08-11T07:10:36.169Z,21.52
2018-08-11T07:13:03.253Z,21.53
2018-08-11T07:15:30.190Z,21.96
2018-08-11T07:17:57.113Z,22.25
2018-08-11T07:20:24.037Z,23.09
2018-08-11T07:22:50.914Z,22.99
2018-08-11T07:25:17.881Z,22.94
2018-08-11T07:27:44.843Z,22.59
2018-08-11T07:30:11.941Z,22.37
2018-08-11T07:32:38.855Z,21.85
2018-08-11T07:35:05.813Z,21.40
2018-08-11T07:37:32.770Z,21.70
2018-08-11T07:39:59.742Z,22.14
2018-08-11T07:42:26.682Z,22.25
2018-08-11T07:44:53.638Z,22.18
2018-08-11T07:47:20.593Z,22.41
2018-08-11T07:49:47.611Z,22.22
2018-08-11T07:52:14.486Z,22.22
2018-08-11T07:54:41.406Z,21.96
2018-08-11T07:57:08.309Z,22.02
2018-08-11T07:59:35.284Z,22.18
2018-08-11T08:02:02.245Z,22.25
2018-08-11T08:04:30.026Z,22.35
2018-08-11T08:06:56.987Z,22.28
2018-08-11T08:09:23.952Z,22.01
2018-08-11T08:11:50.897Z,21.94
2018-08-11T08:14:17.814Z,22.33
2018-08-11T08:16:44.731Z,21.91
2018-08-11T08:19:11.661Z,21.60
2018-08-11T08:21:38.639Z,22.06
2018-08-11T08:24:06.498Z,22.29
2018-08-11T08:26:33.605Z,22.11
2018-08-11T08:29:00.427Z,22.28
2018-08-11T08:31:27.425Z,21.98
2018-08-11T08:33:54.454Z,21.81
2018-08-11T08:36:21.272Z,21.90
2018-08-11T08:38:48.233Z,22.08
2018-08-11T08:41:15.302Z,22.54
2018-08-11T08:43:42.261Z,22.56
2018-08-11T08:46:10.249Z,22.51
2018-08-11T08:48:37.166Z,22.23
2018-08-11T08:51:04.087Z,22.83
2018-08-11T08:53:31.013Z,22.91
2018-08-11T08:55:57.986Z,22.91
2018-08-11T08:58:24.915Z,23.47
2018-08-11T09:00:51.890Z,23.22
2018-08-11T09:03:18.886Z,23.05
2018-08-11T09:05:45.829Z,23.06
2018-08-11T09:08:12.787Z,23.50
2018-08-11T09:10:39.714Z,23.50
2018-08-11T09:13:06.700Z,23.58
2018-08-11T09:15:33.639Z,24.10
2018-08-11T09:18:00.591Z,23.87
2018-08-11T09:20:27.525Z,24.11
2018-08-11T09:22:54.424Z,24.68
2018-08-11T09:25:21.414Z,24.37
2018-08-11T09:27:48.326Z,23.32
2018-08-11T09:30:16.062Z,22.66
2018-08-11T09:32:42.954Z,22.94
2018-08-11T09:35:10.038Z,23.28
2018-08-11T09:37:36.975Z,23.63
2018-08-11T09:40:04.322Z,23.82
2018-08-11T09:42:31.262Z,23.89
2018-08-11T09:44:58.186Z,23.59
2018-08-11T09:47:25.112Z,23.51
2018-08-11T09:49:52.606Z,23.45
2018-08-11T09:52:19.521Z,23.21
2018-08-11T09:54:46.485Z,23.07
2018-08-11T09:57:14.056Z,23.54
2018-08-11T09:59:41.010Z,24.05
2018-08-11T10:02:13.810Z,24.61
2018-08-11T10:04:42.650Z,25.48
2018-08-11T10:07:09.570Z,25.65
2018-08-11T10:09:36.545Z,25.34
2018-08-11T10:12:03.505Z,25.43
2018-08-11T10:14:30.422Z,24.33
2018-08-11T10:16:57.294Z,24.46
2018-08-11T10:19:24.277Z,25.50
2018-08-11T10:21:51.234Z,25.24
2018-08-11T10:24:20.074Z,24.60
2018-08-11T10:26:47.596Z,24.36
2018-08-11T10:29:14.546Z,24.92
2018-08-11T10:31:41.470Z,25.11
2018-08-11T10:34:08.389Z,25.46
2018-08-11T10:36:36.159Z,26.04
2018-08-11T10:39:05.238Z,25.31
2018-08-11T10:41:32.215Z,25.94
2018-08-11T10:43:59.174Z,25.36
2018-08-11T10:46:26.250Z,25.98
2018-08-11T10:48:54.121Z,25.04
2018-08-11T10:51:21.236Z,25.31
2018-08-11T10:53:48.156Z,24.45
2018-08-11T10:56:15.074Z,24.06
2018-08-11T10:58:42.002Z,24.08
2018-08-11T11:01:08.907Z,23.91
2018-08-11T11:03:35.833Z,24.20
2018-08-11T11:06:02.848Z,25.05
2018-08-11T11:08:29.895Z,25.28
2018-08-11T11:10:57.649Z,24.75
2018-08-11T11:13:25.180Z,24.16
2018-08-11T11:15:54.133Z,23.78
2018-08-11T11:18:21.593Z,24.19
2018-08-11T11:20:48.577Z,24.50
2018-08-11T11:23:15.510Z,25.02
2018-08-11T11:25:42.456Z,25.72
2018-08-11T11:28:10.141Z,25.75
2018-08-11T11:30:37.109Z,25.55
2018-08-11T11:33:04.133Z,25.39
2018-08-11T11:35:31.097Z,25.86
2018-08-11T11:37:58.065Z,25.86
2018-08-11T11:40:25.070Z,26.04
2018-08-11T11:42:52.158Z,26.21
2018-08-11T11:45:19.194Z,25.62
2018-08-11T11:47:46.116Z,25.76
2018-08-11T11:50:13.057Z,25.40
2018-08-11T11:52:41.649Z,25.66
2018-08-11T11:55:08.605Z,26.71
2018-08-11T11:57:35.593Z,26.54
2018-08-11T12:00:02.631Z,26.36
2018-08-11T12:02:29.498Z,25.89
2018-08-11T12:04:56.450Z,25.44
2018-08-11T12:07:23.434Z,26.38
2018-08-11T12:09:50.415Z,26.11
2018-08-11T12:12:17.309Z,25.79
2018-08-11T12:14:44.253Z,25.40
2018-08-11T12:17:11.301Z,25.38
2018-08-11T12:19:39.120Z,24.73
2018-08-11T12:22:06.069Z,24.51
2018-08-11T12:24:33.070Z,24.95
2018-08-11T12:26:59.998Z,25.18
2018-08-11T12:29:26.971Z,25.11
2018-08-11T12:31:53.913Z,24.98
2018-08-11T12:34:20.897Z,25.43
2018-08-11T12:36:47.822Z,25.94
2018-08-11T12:39:14.782Z,25.99
2018-08-11T12:41:41.740Z,26.31
2018-08-11T12:44:09.213Z,26.86
2018-08-11T12:46:36.180Z,26.62
2018-08-11T12:49:03.643Z,27.46
2018-08-11T12:51:30.569Z,27.11
2018-08-11T12:53:57.598Z,26.56
2018-08-11T12:56:24.485Z,26.50
2018-08-11T12:58:51.477Z,26.61
2018-08-11T13:01:18.405Z,26.30
2018-08-11T13:03:45.365Z,26.34
2018-08-11T13:06:14.162Z,26.49
2018-08-11T13:08:41.119Z,26.69
2018-08-11T13:11:08.106Z,26.10
2018-08-11T13:13:35.106Z,25.79
2018-08-11T13:16:02.212Z,25.54
2018-08-11T13:18:29.149Z,25.89
2018-08-11T13:20:56.126Z,26.27
2018-08-11T13:23:23.062Z,25.95
2018-08-11T13:25:50.062Z,25.95
2018-08-11T13:28:17.037Z,26.07
2018-08-11T13:30:43.973Z,26.27
2018-08-11T13:33:10.921Z,26.57
2018-08-11T13:35:37.982Z,26.63
2018-08-11T13:38:05.758Z,26.64
2018-08-11T13:40:32.719Z,26.49
2018-08-11T13:42:59.633Z,26.79
2018-08-11T13:45:26.639Z,26.82
2018-08-11T13:47:53.618Z,26.51
2018-08-11T13:50:20.530Z,26.65
2018-08-11T13:52:47.613Z,26.38
2018-08-11T13:55:14.631Z,26.85
2018-08-11T13:57:42.722Z,26.54
2018-08-11T14:00:10.093Z,26.25
2018-08-11T14:02:37.114Z,26.32
2018-08-11T14:05:04.775Z,26.52
2018-08-11T14:07:31.815Z,26.82
2018-08-11T14:09:58.759Z,26.99
2018-08-11T14:12:26.770Z,27.18
2018-08-11T14:14:53.699Z,27.22
2018-08-11T14:17:20.646Z,26.66
2018-08-11T14:19:47.618Z,26.09
2018-08-11T14:22:15.598Z,25.99
2018-08-11T14:24:42.533Z,26.18
2018-08-11T14:27:09.477Z,26.32
2018-08-11T14:29:36.470Z,26.64
2018-08-11T14:32:03.501Z,26.66
2018-08-11T14:34:30.514Z,26.65
2018-08-11T14:36:57.429Z,26.95
2018-08-11T14:39:24.390Z,26.89
2018-08-11T14:41:51.346Z,27.00
2018-08-11T14:44:18.362Z,26.82
2018-08-11T14:46:45.322Z,27.16
2018-08-11T14:49:12.226Z,26.64
2018-08-11T14:51:39.195Z,26.18
2018-08-11T14:54:06.147Z,26.46
2018-08-11T14:56:33.109Z,26.62
2018-08-11T14:59:00.043Z,26.45
2018-08-11T15:01:27.004Z,26.55
2018-08-11T15:03:53.992Z,26.41
2018-08-11T15:06:21.531Z,26.31
2018-08-11T15:08:48.493Z,26.45
2018-08-11T15:11:16.306Z,26.28
2018-08-11T15:13:43.219Z,26.29
2018-08-11T15:16:10.210Z,26.53
2018-08-11T15:18:37.295Z,26.52
2018-08-11T15:21:04.235Z,26.45
2018-08-11T15:23:31.231Z,26.56
2018-08-11T15:25:58.113Z,26.19
2018-08-11T15:28:25.074Z,26.02
2018-08-11T15:30:52.051Z,26.22
2018-08-11T15:33:19.030Z,26.30
2018-08-11T15:35:46.770Z,26.12
2018-08-11T15:38:14.252Z,26.08
2018-08-11T15:40:41.194Z,25.86
2018-08-11T15:43:08.170Z,25.42
2018-08-11T15:45:35.106Z,25.59
2018-08-11T15:48:02.061Z,25.40
2018-08-11T15:50:29.042Z,25.60
2018-08-11T15:52:55.997Z,25.95
2018-08-11T15:55:22.942Z,25.99
2018-08-11T15:57:49.912Z,25.92
2018-08-11T16:00:17.862Z,26.13
2018-08-11T16:02:44.850Z,26.09
2018-08-11T16:05:11.806Z,25.69
2018-08-11T16:07:38.771Z,25.91
2018-08-11T16:10:06.337Z,26.18
2018-08-11T16:12:33.309Z,25.81
2018-08-11T16:15:00.282Z,26.19
2018-08-11T16:17:27.403Z,25.79
2018-08-11T16:19:54.354Z,25.73
2018-08-11T16:22:21.333Z,25.76
2018-08-11T16:24:49.330Z,25.94
2018-08-11T16:27:16.320Z,25.67
2018-08-11T16:29:43.218Z,25.55
2018-08-11T16:32:10.254Z,25.25
2018-08-11T16:34:37.190Z,25.43
2018-08-11T16:37:04.128Z,25.42
2018-08-11T16:39:31.119Z,25.35
2018-08-11T16:41:58.010Z,25.39
2018-08-11T16:44:25.006Z,25.62
2018-08-11T16:46:51.957Z,25.75
2018-08-11T16:49:18.885Z,25.67
2018-08-11T16:51:45.845Z,25.64
2018-08-11T16:54:12.786Z,25.43
2018-08-11T16:56:39.822Z,25.72
2018-08-11T16:59:06.859Z,25.64
2018-08-11T17:01:33.812Z,25.40
2018-08-11T17:04:01.777Z,25.03
2018-08-11T17:06:28.704Z,25.26
2018-08-11T17:08:56.701Z,25.16
2018-08-11T17:11:23.636Z,24.88
2018-08-11T17:13:50.598Z,24.88
2018-08-11T17:16:17.637Z,25.14
2018-08-11T17:18:45.503Z,25.12
2018-08-11T17:21:11.776Z,25.06
2018-08-11T17:23:38.806Z,24.77
2018-08-11T17:26:05.761Z,25.04
2018-08-11T17:28:32.696Z,24.69
2018-08-11T17:30:59.649Z,24.83
2018-08-11T17:33:26.592Z,24.42
2018-08-11T17:35:53.533Z,24.25
2018-08-11T17:38:20.478Z,24.13
2018-08-11T17:40:47.499Z,24.26
2018-08-11T17:43:14.385Z,24.25
2018-08-11T17:45:41.370Z,24.28
2018-08-11T17:48:08.394Z,24.73
2018-08-11T17:50:35.898Z,24.25
2018-08-11T17:53:03.366Z,23.92
2018-08-11T17:55:30.381Z,24.09
2018-08-11T17:57:57.385Z,24.03
2018-08-11T18:00:24.319Z,23.82
2018-08-11T18:02:51.890Z,23.71
2018-08-11T18:05:18.900Z,23.62
2018-08-11T18:07:45.785Z,23.63
2018-08-11T18:10:12.698Z,23.59
2018-08-11T18:12:39.653Z,23.47
2018-08-11T18:15:06.607Z,23.47
2018-08-11T18:17:33.657Z,23.37
2018-08-11T18:20:01.338Z,23.27
2018-08-11T18:22:28.266Z,23.34
2018-08-11T18:24:55.247Z,23.15
2018-08-11T18:27:22.194Z,23.94
2018-08-11T18:29:49.120Z,23.56
2018-08-11T18:32:16.831Z,23.38
2018-08-11T18:34:43.843Z,23.10
2018-08-11T18:37:10.726Z,22.89
2018-08-11T18:39:37.721Z,22.63
2018-08-11T18:42:04.673Z,22.55
2018-08-11T18:44:31.614Z,22.27
2018-08-11T18:46:58.566Z,22.29
2018-08-11T18:49:25.547Z,22.19
2018-08-11T18:51:52.561Z,21.91
2018-08-11T18:54:19.578Z,21.75
2018-08-11T18:56:46.505Z,21.64
2018-08-11T18:59:13.459Z,21.38
2018-08-11T19:01:41.433Z,21.19
2018-08-11T19:04:08.881Z,21.17
2018-08-11T19:06:35.846Z,21.13
2018-08-11T19:09:04.875Z,20.80
2018-08-11T19:11:31.847Z,20.78
2018-08-11T19:13:58.757Z,20.64
2018-08-11T19:16:25.642Z,20.63
2018-08-11T19:18:52.596Z,20.54
2018-08-11T19:21:19.545Z,20.54
2018-08-11T19:23:47.481Z,20.53
2018-08-11T19:26:14.357Z,20.60
2018-08-11T19:28:41.243Z,20.35
2018-08-11T19:31:08.203Z,20.51
2018-08-11T19:33:35.177Z,20.41
2018-08-11T19:36:02.352Z,20.22
2018-08-11T19:38:29.278Z,20.33
2018-08-11T19:40:56.318Z,20.43
2018-08-11T19:43:23.215Z,20.42
2018-08-11T19:45:51.178Z,20.48
2018-08-11T19:48:18.155Z,20.37
2018-08-11T19:50:45.090Z,20.32
2018-08-11T19:53:12.041Z,20.22
2018-08-11T19:55:39.021Z,19.98
2018-08-11T19:58:05.977Z,19.89
2018-08-11T20:00:33.013Z,19.88
2018-08-11T20:02:59.982Z,19.81
2018-08-11T20:05:26.971Z,19.94
2018-08-11T20:07:53.946Z,19.77
2018-08-11T20:10:20.859Z,19.70
2018-08-11T20:12:47.893Z,19.73
2018-08-11T20:15:14.768Z,19.69
2018-08-11T20:17:41.741Z,19.73
2018-08-11T20:20:09.713Z,19.66
2018-08-11T20:22:36.698Z,19.59
2018-08-11T20:25:04.789Z,19.55
2018-08-11T20:27:31.764Z,19.22
2018-08-11T20:29:58.673Z,19.07
2018-08-11T20:32:25.621Z,19.81
2018-08-11T20:34:52.578Z,19.01
2018-08-11T20:37:19.615Z,18.77
2018-08-11T20:39:46.525Z,18.78
2018-08-11T20:42:13.453Z,18.80
2018-08-11T20:44:40.465Z,18.89
2018-08-11T20:47:07.490Z,19.11
2018-08-11T20:49:34.462Z,18.97
2018-08-11T20:52:01.363Z,19.01
2018-08-11T20:54:28.263Z,18.93
2018-08-11T20:56:55.271Z,18.75
2018-08-11T20:59:22.173Z,18.59
2018-08-11T21:01:49.099Z,18.37
2018-08-11T21:04:16.053Z,18.63
2018-08-11T21:06:43.025Z,18.64
2018-08-11T21:09:11.623Z,18.41
2018-08-11T21:11:38.614Z,18.24
2018-08-11T21:14:05.953Z,18.09
2018-08-11T21:16:33.970Z,18.05
2018-08-11T21:19:01.971Z,18.00
2018-08-11T21:21:28.886Z,17.95
2018-08-11T21:23:55.866Z,18.04
2018-08-11T21:26:22.697Z,18.11
2018-08-11T21:28:49.656Z,18.06
2018-08-11T21:31:16.606Z,17.57
2018-08-11T21:33:43.754Z,17.47
2018-08-11T21:36:10.721Z,17.57
2018-08-11T21:38:37.702Z,17.57
2018-08-11T21:41:04.650Z,17.54
2018-08-11T21:43:31.607Z,17.61
2018-08-11T21:45:58.525Z,17.45
2018-08-11T21:48:26.022Z,17.42
2018-08-11T21:50:53.481Z,17.15
2018-08-11T21:53:20.458Z,17.14
2018-08-11T21:55:47.374Z,17.13
2018-08-11T21:58:14.249Z,16.95
2018-08-11T22:00:55.667Z,16.70
2018-08-11T22:03:22.628Z,16.69
2018-08-11T22:05:49.797Z,17.01
2018-08-11T22:08:16.729Z,17.20
2018-08-11T22:10:43.691Z,17.17
2018-08-11T22:13:11.494Z,17.31
2018-08-11T22:15:38.446Z,16.98
2018-08-11T22:18:05.355Z,17.11
2018-08-11T22:20:32.397Z,17.04
2018-08-11T22:22:59.289Z,17.02
2018-08-11T22:25:26.255Z,16.84
2018-08-11T22:27:53.201Z,16.62
2018-08-11T22:30:20.950Z,16.55
2018-08-11T22:32:47.866Z,16.35
2018-08-11T22:35:14.814Z,16.45
2018-08-11T22:37:41.770Z,16.42
2018-08-11T22:40:08.730Z,16.59
2018-08-11T22:42:36.481Z,16.67
2018-08-11T22:45:06.562Z,16.62
2018-08-11T22:47:34.029Z,16.93
2018-08-11T22:50:01.592Z,17.04
2018-08-11T22:52:28.515Z,16.75
2018-08-11T22:54:55.502Z,16.63
2018-08-11T22:57:22.425Z,16.69
2018-08-11T22:59:49.400Z,16.76
2018-08-11T23:02:17.085Z,16.79
2018-08-11T23:04:44.250Z,16.65
2018-08-11T23:07:11.243Z,16.46
2018-08-11T23:09:38.170Z,16.30
2018-08-11T23:12:06.543Z,16.40
2018-08-11T23:14:33.498Z,16.17
2018-08-11T23:17:01.110Z,16.12
2018-08-11T23:19:29.045Z,16.22
2018-08-11T23:21:57.049Z,16.20
2018-08-11T23:24:24.031Z,16.17
2018-08-11T23:26:50.977Z,16.03
2018-08-11T23:29:17.934Z,15.90
2018-08-11T23:31:44.843Z,16.23
2018-08-11T23:34:12.883Z,16.14
2018-08-11T23:36:39.769Z,16.06
2018-08-11T23:39:07.569Z,16.05
2018-08-11T23:41:34.633Z,16.01
2018-08-11T23:44:01.666Z,15.88
2018-08-11T23:46:28.518Z,15.77
2018-08-11T23:48:55.493Z,15.64
2018-08-11T23:51:22.470Z,15.62
2018-08-11T23:53:50.466Z,15.45
2018-08-11T23:56:17.369Z,15.29
